createdAt,value
2018-04-18T00:00:18.211Z,67.60
2018-04-18T00:02:50.804Z,67.50
2018-04-18T00:05:23.427Z,67.30
2018-04-18T00:07:56.779Z,67.70
2018-04-18T00:10:29.386Z,67.60
2018-04-18T00:13:01.980Z,67.60
2018-04-18T00:15:34.615Z,67.80
2018-04-18T00:18:07.971Z,68.00
2018-04-18T00:20:40.589Z,67.90
2018-04-18T00:23:13.179Z,68.00
2018-04-18T00:25:45.816Z,68.50
2018-04-18T00:28:18.413Z,68.20
2018-04-18T00:30:51.043Z,68.10
2018-04-18T00:33:23.651Z,68.10
2018-04-18T00:35:56.263Z,68.40
2018-04-18T00:38:29.627Z,68.50
2018-04-18T00:41:02.276Z,68.40
2018-04-18T00:43:34.907Z,68.40
2018-04-18T00:46:07.549Z,68.60
2018-04-18T00:48:40.922Z,68.80
2018-04-18T00:51:13.564Z,69.00
2018-04-18T00:53:46.159Z,68.60
2018-04-18T00:56:18.789Z,69.00
2018-04-18T00:58:51.379Z,69.00
2018-04-18T01:01:24.006Z,68.70
2018-04-18T01:03:57.364Z,68.60
2018-04-18T01:06:30.008Z,68.50
2018-04-18T01:09:03.372Z,68.80
2018-04-18T01:11:36.017Z,68.70
2018-04-18T01:14:08.628Z,68.90
2018-04-18T01:16:41.247Z,69.20
2018-04-18T01:19:13.835Z,69.40
2018-04-18T01:21:46.466Z,69.60
2018-04-18T01:24:19.063Z,69.80
2018-04-18T01:26:52.475Z,70.30
2018-04-18T01:29:25.840Z,70.50
2018-04-18T01:31:58.460Z,70.40
2018-04-18T01:34:31.050Z,69.80
2018-04-18T01:37:03.683Z,70.20
2018-04-18T01:39:36.395Z,70.10
2018-04-18T01:42:09.038Z,70.50
2018-04-18T01:44:42.403Z,70.40
2018-04-18T01:47:15.009Z,70.40
2018-04-18T01:49:47.617Z,70.30
2018-04-18T01:52:20.243Z,70.20
2018-04-18T01:54:52.845Z,70.20
2018-04-18T01:57:25.541Z,70.40
2018-04-18T01:59:58.146Z,70.20
2018-04-18T02:02:30.776Z,70.40
2018-04-18T02:05:03.382Z,70.10
2018-04-18T02:07:36.793Z,70.10
2018-04-18T02:10:10.171Z,69.60
2018-04-18T02:12:42.821Z,69.90
2018-04-18T02:15:15.424Z,70.50
2018-04-18T02:17:48.051Z,70.80
2018-04-18T02:20:20.652Z,70.70
2018-04-18T02:22:53.300Z,71.00
2018-04-18T02:25:25.909Z,70.80
2018-04-18T02:27:58.533Z,71.60
2018-04-18T02:30:31.123Z,72.80
2018-04-18T02:33:03.759Z,72.20
2018-04-18T02:35:36.357Z,72.20
2018-04-18T02:38:08.980Z,72.20
2018-04-18T02:40:41.589Z,72.50
2018-04-18T02:43:14.209Z,72.40
2018-04-18T02:45:46.808Z,72.60
2018-04-18T02:48:19.440Z,72.30
2018-04-18T02:50:52.064Z,72.40
2018-04-18T02:53:25.448Z,72.90
2018-04-18T02:55:58.040Z,72.70
2018-04-18T02:58:30.676Z,72.90
2018-04-18T03:01:03.264Z,72.60
2018-04-18T03:03:35.896Z,72.90
2018-04-18T03:06:08.500Z,73.00
2018-04-18T03:08:41.128Z,73.10
2018-04-18T03:11:13.733Z,73.30
2018-04-18T03:13:46.357Z,73.10
2018-04-18T03:16:18.960Z,73.30
2018-04-18T03:18:52.568Z,73.30
2018-04-18T03:21:25.193Z,73.30
2018-04-18T03:23:57.829Z,73.30
2018-04-18T03:26:30.492Z,73.70
2018-04-18T03:29:03.076Z,74.00
2018-04-18T03:31:36.512Z,73.80
2018-04-18T03:34:09.136Z,73.70
2018-04-18T03:36:41.736Z,73.80
2018-04-18T03:39:14.380Z,74.00
2018-04-18T03:41:47.736Z,74.00
2018-04-18T03:44:20.371Z,73.80
2018-04-18T03:46:53.749Z,74.10
2018-04-18T03:49:26.383Z,74.10
2018-04-18T03:51:58.987Z,74.60
2018-04-18T03:54:31.629Z,74.30
2018-04-18T03:57:05.312Z,74.10
2018-04-18T03:59:37.936Z,74.10
2018-04-18T04:02:10.545Z,74.00
2018-04-18T04:04:43.954Z,74.80
2018-04-18T04:07:16.551Z,74.60
2018-04-18T04:09:49.959Z,74.70
2018-04-18T04:12:23.323Z,74.90
2018-04-18T04:14:55.944Z,74.90
2018-04-18T04:17:40.445Z,74.90
2018-04-18T04:20:25.753Z,75.90
2018-04-18T04:23:10.303Z,75.80
2018-04-18T04:25:42.937Z,76.60
2018-04-18T04:28:15.545Z,76.10
2018-04-18T04:30:48.164Z,76.00
2018-04-18T04:33:22.271Z,75.60
2018-04-18T04:35:54.897Z,75.60
2018-04-18T04:38:27.500Z,75.60
2018-04-18T04:41:00.120Z,75.70
2018-04-18T04:43:32.731Z,75.90
2018-04-18T04:46:05.357Z,75.60
2018-04-18T04:48:38.723Z,75.90
2018-04-18T04:51:11.363Z,75.70
2018-04-18T04:53:44.732Z,76.40
2018-04-18T04:56:17.380Z,76.30
2018-04-18T04:58:49.981Z,80.80
2018-04-18T05:01:22.658Z,79.50
2018-04-18T05:03:55.232Z,78.40
2018-04-18T05:06:28.624Z,79.20
2018-04-18T05:09:01.233Z,79.10
2018-04-18T05:11:34.616Z,81.50
2018-04-18T05:14:07.224Z,81.20
2018-04-18T05:16:40.648Z,82.20
2018-04-18T05:19:14.017Z,84.30
2018-04-18T05:21:46.658Z,84.30
2018-04-18T05:24:20.037Z,85.40
2018-04-18T05:26:52.691Z,85.30
2018-04-18T05:29:25.344Z,85.20
2018-04-18T05:31:57.923Z,85.20
2018-04-18T05:34:30.521Z,85.80
2018-04-18T05:37:03.900Z,85.70
2018-04-18T05:39:36.510Z,85.70
2018-04-18T05:42:09.156Z,85.80
2018-04-18T05:44:41.752Z,85.80
2018-04-18T05:47:14.414Z,85.10
2018-04-18T05:49:47.013Z,85.60
2018-04-18T05:52:19.636Z,84.50
2018-04-18T05:54:52.277Z,83.00
2018-04-18T05:57:24.885Z,83.70
2018-04-18T05:59:57.493Z,83.50
2018-04-18T06:02:30.116Z,83.20
2018-04-18T06:05:02.726Z,82.90
2018-04-18T06:07:35.380Z,85.60
2018-04-18T06:10:07.983Z,83.70
2018-04-18T06:12:40.628Z,84.90
2018-04-18T06:15:13.231Z,85.80
2018-04-18T06:17:45.848Z,85.30
2018-04-18T06:20:18.450Z,84.70
2018-04-18T06:22:51.071Z,84.80
2018-04-18T06:25:23.678Z,83.40
2018-04-18T06:27:57.076Z,84.80
2018-04-18T06:30:30.439Z,84.30
2018-04-18T06:33:03.085Z,84.30
2018-04-18T06:35:36.455Z,83.40
2018-04-18T06:38:09.102Z,83.40
2018-04-18T06:40:41.713Z,80.60
2018-04-18T06:43:14.341Z,82.20
2018-04-18T06:45:46.950Z,79.50
2018-04-18T06:48:20.339Z,80.00
2018-04-18T06:50:52.944Z,79.90
2018-04-18T06:53:25.564Z,78.70
2018-04-18T06:55:58.173Z,79.50
2018-04-18T06:58:30.805Z,78.00
2018-04-18T07:01:03.408Z,76.80
2018-04-18T07:03:36.033Z,76.90
2018-04-18T07:06:08.645Z,77.60
2018-04-18T07:08:41.292Z,76.30
2018-04-18T07:11:14.673Z,76.00
2018-04-18T07:13:47.333Z,75.90
2018-04-18T07:16:19.954Z,75.20
2018-04-18T07:18:52.599Z,74.40
2018-04-18T07:21:25.229Z,75.00
2018-04-18T07:23:57.887Z,74.40
2018-04-18T07:26:30.506Z,74.60
2018-04-18T07:29:03.137Z,73.70
2018-04-18T07:31:35.750Z,71.80
2018-04-18T07:34:09.157Z,70.80
2018-04-18T07:36:56.515Z,69.40
2018-04-18T07:39:29.146Z,69.50
2018-04-18T07:42:01.761Z,69.50
2018-04-18T07:44:34.405Z,71.50
2018-04-18T07:47:07.013Z,71.60
2018-04-18T07:49:39.644Z,70.20
2018-04-18T07:52:12.247Z,69.00
2018-04-18T07:54:45.631Z,70.30
2018-04-18T07:57:18.243Z,70.90
2018-04-18T07:59:51.656Z,68.60
2018-04-18T08:02:25.037Z,63.80
2018-04-18T08:04:57.664Z,63.80
2018-04-18T08:07:30.263Z,61.40
2018-04-18T08:10:02.892Z,61.90
2018-04-18T08:12:35.509Z,61.60
2018-04-18T08:15:08.137Z,58.40
2018-04-18T08:17:40.759Z,60.60
2018-04-18T08:20:13.416Z,60.10
2018-04-18T08:22:46.029Z,59.50
2018-04-18T08:25:18.652Z,58.10
2018-04-18T08:27:57.108Z,58.30
2018-04-18T08:30:30.536Z,56.80
2018-04-18T08:33:03.145Z,56.80
2018-04-18T08:35:35.798Z,56.50
2018-04-18T08:38:09.172Z,52.70
2018-04-18T08:40:41.818Z,52.60
2018-04-18T08:43:14.416Z,51.30
2018-04-18T08:45:47.055Z,50.90
2018-04-18T08:48:19.662Z,54.00
2018-04-18T08:50:52.297Z,50.50
2018-04-18T08:53:24.925Z,51.30
2018-04-18T08:55:57.546Z,52.20
2018-04-18T08:58:30.921Z,53.20
2018-04-18T09:01:03.543Z,53.10
2018-04-18T09:03:36.143Z,52.80
2018-04-18T09:06:09.532Z,51.00
2018-04-18T09:08:42.133Z,51.60
2018-04-18T09:11:15.552Z,51.40
2018-04-18T09:13:48.924Z,50.00
2018-04-18T09:16:21.550Z,49.90
2018-04-18T09:18:54.931Z,50.70
2018-04-18T09:21:27.583Z,50.60
2018-04-18T09:24:00.190Z,50.20
2018-04-18T09:26:32.820Z,47.10
2018-04-18T09:29:05.431Z,47.70
2018-04-18T09:31:38.840Z,48.40
2018-04-18T09:34:12.217Z,47.90
2018-04-18T09:36:44.880Z,47.40
2018-04-18T09:39:17.492Z,44.30
2018-04-18T09:41:50.116Z,45.00
2018-04-18T09:44:23.486Z,45.10
2018-04-18T09:46:56.112Z,45.20
2018-04-18T09:49:29.482Z,42.70
2018-04-18T09:52:02.112Z,42.70
2018-04-18T09:54:35.489Z,46.00
2018-04-18T09:57:08.137Z,45.80
2018-04-18T09:59:40.739Z,43.90
2018-04-18T10:02:18.225Z,45.30
2018-04-18T10:04:50.836Z,44.00
2018-04-18T10:07:23.462Z,44.10
2018-04-18T10:09:56.080Z,44.90
2018-04-18T10:12:28.720Z,44.30
2018-04-18T10:15:01.322Z,43.70
2018-04-18T10:17:33.965Z,38.90
2018-04-18T10:20:07.336Z,38.20
2018-04-18T10:22:39.984Z,38.20
2018-04-18T10:25:12.593Z,41.40
2018-04-18T10:27:45.235Z,41.20
2018-04-18T10:30:17.840Z,41.20
2018-04-18T10:32:51.238Z,40.40
2018-04-18T10:35:23.843Z,40.40
2018-04-18T10:37:57.239Z,40.60
2018-04-18T10:40:29.840Z,40.60
2018-04-18T10:43:03.264Z,39.30
2018-04-18T10:45:36.640Z,38.60
2018-04-18T10:48:09.288Z,38.60
2018-04-18T10:50:41.892Z,37.60
2018-04-18T10:53:14.541Z,39.00
2018-04-18T10:55:47.921Z,39.30
2018-04-18T10:58:20.552Z,39.30
2018-04-18T11:00:53.934Z,38.60
2018-04-18T11:03:26.580Z,37.90
2018-04-18T11:05:59.189Z,36.90
2018-04-18T11:08:31.833Z,37.00
2018-04-18T11:11:05.204Z,35.90
2018-04-18T11:13:37.861Z,35.70
2018-04-18T11:16:10.471Z,36.40
2018-04-18T11:18:43.132Z,34.10
2018-04-18T11:21:15.759Z,33.60
2018-04-18T11:23:48.385Z,32.90
2018-04-18T11:26:21.760Z,34.20
2018-04-18T11:28:54.383Z,34.00
2018-04-18T11:31:26.993Z,36.60
2018-04-18T11:33:59.649Z,35.50
2018-04-18T11:36:32.269Z,36.80
2018-04-18T11:39:05.679Z,37.00
2018-04-18T11:41:39.048Z,36.00
2018-04-18T11:44:11.703Z,36.00
2018-04-18T11:46:44.311Z,36.50
2018-04-18T11:49:16.932Z,37.10
2018-04-18T11:51:49.540Z,32.10
2018-04-18T11:54:22.174Z,33.60
2018-04-18T11:56:54.783Z,35.00
2018-04-18T11:59:27.440Z,34.40
2018-04-18T12:02:00.048Z,35.80
2018-04-18T12:04:32.677Z,36.10
2018-04-18T12:07:05.280Z,36.20
2018-04-18T12:09:37.924Z,34.40
2018-04-18T12:12:10.534Z,35.70
2018-04-18T12:14:43.177Z,34.50
2018-04-18T12:17:16.548Z,35.30
2018-04-18T12:19:49.202Z,35.30
2018-04-18T12:22:21.804Z,34.70
2018-04-18T12:24:54.429Z,37.00
2018-04-18T12:27:27.033Z,37.00
2018-04-18T12:29:59.664Z,36.80
2018-04-18T12:32:32.275Z,36.30
2018-04-18T12:35:04.934Z,36.00
2018-04-18T12:37:37.549Z,36.70
2018-04-18T12:40:10.193Z,35.30
2018-04-18T12:42:42.803Z,34.60
2018-04-18T12:45:16.228Z,33.50
2018-04-18T12:47:48.837Z,33.60
2018-04-18T12:50:21.463Z,35.10
2018-04-18T12:52:54.075Z,34.60
2018-04-18T12:55:27.464Z,33.60
2018-04-18T12:58:00.084Z,33.40
2018-04-18T13:00:33.473Z,33.40
2018-04-18T13:03:06.077Z,33.30
2018-04-18T13:05:39.475Z,31.90
2018-04-18T13:08:12.100Z,31.70
2018-04-18T13:10:44.766Z,33.90
2018-04-18T13:13:18.148Z,28.80
2018-04-18T13:15:50.792Z,28.70
2018-04-18T13:18:23.431Z,30.60
2018-04-18T13:20:56.057Z,31.40
2018-04-18T13:23:29.435Z,31.00
2018-04-18T13:26:02.085Z,30.90
2018-04-18T13:28:34.701Z,32.20
2018-04-18T13:31:07.779Z,30.40
2018-04-18T13:33:40.429Z,32.20
2018-04-18T13:36:13.066Z,28.80
2018-04-18T13:38:45.668Z,31.00
2018-04-18T13:41:18.312Z,31.20
2018-04-18T13:43:51.683Z,31.60
2018-04-18T13:46:24.299Z,31.10
2018-04-18T13:48:56.899Z,30.70
2018-04-18T13:51:29.547Z,30.60
2018-04-18T13:54:02.143Z,31.70
2018-04-18T13:56:34.784Z,31.00
2018-04-18T13:59:08.155Z,31.60
2018-04-18T14:01:40.808Z,31.60
2018-04-18T14:04:13.409Z,30.20
2018-04-18T14:06:46.026Z,30.50
2018-04-18T14:09:18.640Z,30.20
2018-04-18T14:11:51.269Z,30.50
2018-04-18T14:14:24.062Z,32.20
2018-04-18T14:16:56.727Z,31.20
2018-04-18T14:19:29.360Z,31.70
2018-04-18T14:22:01.984Z,33.00
2018-04-18T14:24:34.595Z,31.80
2018-04-18T14:27:07.244Z,31.60
2018-04-18T14:29:39.852Z,31.60
2018-04-18T14:32:12.471Z,32.50
2018-04-18T14:34:45.068Z,32.10
2018-04-18T14:37:17.720Z,32.80
2018-04-18T14:39:50.588Z,31.70
2018-04-18T14:42:24.007Z,33.00
2018-04-18T14:44:56.627Z,33.00
2018-04-18T14:47:29.271Z,35.20
2018-04-18T14:50:02.636Z,32.60
2018-04-18T14:52:35.262Z,32.40
2018-04-18T14:55:08.658Z,31.10
2018-04-18T14:57:49.487Z,30.90
2018-04-18T15:00:22.095Z,32.50
2018-04-18T15:02:54.746Z,32.60
2018-04-18T15:05:28.124Z,33.00
2018-04-18T15:08:00.754Z,32.90
2018-04-18T15:10:34.129Z,33.70
2018-04-18T15:13:06.757Z,33.70
2018-04-18T15:15:40.132Z,34.20
2018-04-18T15:18:13.569Z,32.40
2018-04-18T15:20:46.952Z,32.30
2018-04-18T15:23:19.600Z,32.30
2018-04-18T15:25:52.216Z,33.70
2018-04-18T15:28:25.003Z,33.60
2018-04-18T15:30:57.604Z,33.90
2018-04-18T15:33:30.254Z,32.80
2018-04-18T15:36:02.860Z,31.80
2018-04-18T15:38:35.577Z,31.00
2018-04-18T15:41:08.193Z,31.90
2018-04-18T15:43:40.833Z,33.40
2018-04-18T15:46:13.446Z,32.50
2018-04-18T15:48:46.089Z,31.90
2018-04-18T15:51:19.461Z,34.20
2018-04-18T15:53:52.102Z,34.10
2018-04-18T15:56:25.479Z,33.10
2018-04-18T15:58:58.125Z,33.10
2018-04-18T16:01:30.728Z,33.10
2018-04-18T16:04:03.376Z,34.40
2018-04-18T16:06:36.766Z,35.00
2018-04-18T16:09:09.430Z,35.00
2018-04-18T16:11:42.051Z,34.70
2018-04-18T16:14:14.707Z,35.50
2018-04-18T16:16:47.317Z,34.60
2018-04-18T16:19:19.948Z,35.00
2018-04-18T16:21:53.320Z,34.80
2018-04-18T16:24:25.957Z,34.80
2018-04-18T16:26:59.328Z,36.70
2018-04-18T16:29:40.637Z,36.60
2018-04-18T16:32:13.265Z,37.20
2018-04-18T16:34:45.888Z,37.70
2018-04-18T16:37:18.527Z,37.00
2018-04-18T16:39:51.928Z,37.60
2018-04-18T16:42:25.311Z,38.10
2018-04-18T16:44:57.936Z,38.10
2018-04-18T16:47:31.309Z,38.60
2018-04-18T16:50:03.961Z,39.10
2018-04-18T16:52:36.569Z,38.70
2018-04-18T16:55:09.223Z,39.30
2018-04-18T16:57:41.836Z,39.90
2018-04-18T17:00:14.486Z,39.60
2018-04-18T17:02:47.878Z,40.20
2018-04-18T17:05:20.508Z,40.10
2018-04-18T17:07:53.885Z,40.50
2018-04-18T17:10:26.538Z,40.50
2018-04-18T17:12:59.139Z,41.10
2018-04-18T17:15:31.776Z,41.60
2018-04-18T17:18:05.146Z,41.90
2018-04-18T17:20:37.792Z,41.80
2018-04-18T17:23:11.169Z,42.70
2018-04-18T17:25:43.814Z,42.60
2018-04-18T17:28:16.429Z,42.50
2018-04-18T17:30:49.080Z,43.30
2018-04-18T17:33:21.683Z,42.90
2018-04-18T17:35:54.299Z,43.80
2018-04-18T17:38:26.905Z,43.20
2018-04-18T17:40:59.587Z,43.70
2018-04-18T17:43:32.177Z,45.60
2018-04-18T17:46:04.810Z,46.70
2018-04-18T17:48:38.224Z,45.50
2018-04-18T17:51:10.863Z,45.50
2018-04-18T17:53:43.470Z,44.40
2018-04-18T17:56:16.170Z,44.50
2018-04-18T17:58:48.781Z,45.50
2018-04-18T18:01:22.171Z,45.60
2018-04-18T18:03:54.775Z,45.50
2018-04-18T18:06:27.487Z,45.80
2018-04-18T18:09:00.045Z,45.60
2018-04-18T18:11:32.686Z,46.10
2018-04-18T18:14:05.292Z,46.70
2018-04-18T18:16:37.928Z,46.90
2018-04-18T18:19:10.527Z,46.80
2018-04-18T18:21:43.177Z,47.20
2018-04-18T18:24:15.779Z,48.20
2018-04-18T18:26:48.416Z,48.30
2018-04-18T18:29:28.130Z,49.10
2018-04-18T18:32:00.773Z,49.10
2018-04-18T18:34:34.147Z,49.70
2018-04-18T18:37:06.798Z,49.70
2018-04-18T18:39:39.447Z,49.70
2018-04-18T18:42:12.097Z,50.10
2018-04-18T18:44:44.716Z,50.60
2018-04-18T18:47:17.341Z,50.10
2018-04-18T18:49:50.745Z,50.50
2018-04-18T18:52:24.160Z,49.60
2018-04-18T18:54:57.549Z,50.00
2018-04-18T18:57:30.185Z,49.90
2018-04-18T19:00:04.797Z,49.50
2018-04-18T19:02:39.152Z,50.10
2018-04-18T19:05:12.046Z,50.00
2018-04-18T19:07:45.036Z,50.90
2018-04-18T19:10:18.047Z,51.40
2018-04-18T19:13:02.383Z,51.50
2018-04-18T19:15:35.224Z,51.40
2018-04-18T19:18:08.179Z,50.90
2018-04-18T19:20:41.009Z,51.40
2018-04-18T19:23:14.910Z,51.70
2018-04-18T19:25:47.778Z,51.60
2018-04-18T19:28:20.621Z,51.70
2018-04-18T19:30:54.229Z,52.40
2018-04-18T19:33:27.053Z,52.20
2018-04-18T19:35:59.860Z,53.00
2018-04-18T19:38:32.736Z,53.00
2018-04-18T19:41:06.104Z,53.40
2018-04-18T19:43:38.918Z,53.50
2018-04-18T19:46:11.722Z,53.40
2018-04-18T19:48:45.401Z,53.40
2018-04-18T19:51:18.978Z,53.80
2018-04-18T19:53:51.827Z,53.80
2018-04-18T19:56:25.002Z,53.80
2018-04-18T19:58:57.915Z,53.80
2018-04-18T20:01:30.699Z,54.20
2018-04-18T20:04:03.550Z,54.00
2018-04-18T20:06:36.372Z,54.10
2018-04-18T20:09:09.734Z,54.50
2018-04-18T20:11:42.491Z,54.60
2018-04-18T20:14:15.297Z,54.70
2018-04-18T20:16:48.076Z,54.70
2018-04-18T20:19:21.120Z,54.90
2018-04-18T20:21:54.684Z,54.90
2018-04-18T20:24:27.571Z,54.80
2018-04-18T20:27:00.466Z,55.70
2018-04-18T20:29:33.299Z,56.00
2018-04-18T20:32:06.154Z,56.20
2018-04-18T20:34:38.914Z,56.20
2018-04-18T20:37:12.749Z,56.20
2018-04-18T20:39:45.591Z,56.20
2018-04-18T20:42:18.413Z,56.70
2018-04-18T20:44:52.123Z,57.20
2018-04-18T20:47:24.893Z,57.60
2018-04-18T20:49:57.628Z,57.10
2018-04-18T20:52:30.496Z,57.10
2018-04-18T20:55:03.498Z,57.30
2018-04-18T20:57:36.761Z,57.10
2018-04-18T21:00:10.032Z,56.40
2018-04-18T21:02:43.185Z,57.40
2018-04-18T21:05:16.419Z,57.10
2018-04-18T21:07:49.243Z,58.00
2018-04-18T21:10:22.169Z,57.90
2018-04-18T21:12:54.977Z,58.30
2018-04-18T21:15:27.750Z,58.10
2018-04-18T21:18:01.360Z,58.70
2018-04-18T21:20:34.195Z,58.50
2018-04-18T21:23:07.010Z,58.60
2018-04-18T21:25:39.919Z,58.40
2018-04-18T21:28:12.659Z,58.70
2018-04-18T21:30:45.453Z,59.10
2018-04-18T21:33:18.255Z,59.30
2018-04-18T21:35:51.067Z,59.40
2018-04-18T21:38:24.882Z,59.60
2018-04-18T21:40:57.779Z,60.00
2018-04-18T21:43:30.564Z,60.00
2018-04-18T21:46:03.423Z,60.10
2018-04-18T21:48:36.306Z,59.90
2018-04-18T21:51:09.365Z,60.10
2018-04-18T21:53:42.126Z,60.40
2018-04-18T21:56:15.692Z,59.80
2018-04-18T21:58:48.493Z,59.60
2018-04-18T22:01:21.292Z,59.70
2018-04-18T22:03:54.092Z,60.10
2018-04-18T22:06:26.941Z,60.50
2018-04-18T22:08:59.750Z,61.00
2018-04-18T22:11:32.498Z,60.00
2018-04-18T22:14:05.269Z,60.60
2018-04-18T22:16:38.033Z,60.00
2018-04-18T22:19:10.801Z,61.30
2018-04-18T22:21:43.612Z,61.70
2018-04-18T22:24:17.140Z,62.00
2018-04-18T22:26:49.928Z,61.80
2018-04-18T22:29:22.670Z,62.20
2018-04-18T22:31:55.410Z,62.30
2018-04-18T22:34:28.162Z,62.50
2018-04-18T22:37:00.969Z,62.90
2018-04-18T22:39:33.808Z,63.20
2018-04-18T22:42:06.554Z,61.90
2018-04-18T22:44:39.295Z,63.00
2018-04-18T22:47:12.089Z,62.70
2018-04-18T22:49:44.843Z,63.30
2018-04-18T22:52:17.673Z,63.60
2018-04-18T22:54:50.394Z,63.60
2018-04-18T22:57:23.150Z,64.00
2018-04-18T22:59:55.911Z,64.70
2018-04-18T23:02:28.676Z,65.50
2018-04-18T23:05:01.473Z,64.80
2018-04-18T23:07:34.273Z,66.40
2018-04-18T23:10:07.017Z,65.90
2018-04-18T23:12:40.544Z,66.00
2018-04-18T23:15:14.042Z,66.30
2018-04-18T23:17:47.632Z,64.90
2018-04-18T23:20:20.449Z,64.80
2018-04-18T23:22:53.244Z,64.60
2018-04-18T23:25:26.767Z,65.60
2018-04-18T23:28:00.324Z,65.90
2018-04-18T23:30:33.092Z,65.70
2018-04-18T23:33:05.870Z,67.40
2018-04-18T23:35:38.648Z,67.50
2018-04-18T23:38:12.212Z,67.60
2018-04-18T23:40:44.985Z,67.50
2018-04-18T23:43:17.869Z,67.70
2018-04-18T23:45:51.332Z,66.80
2018-04-18T23:48:24.162Z,66.70
2018-04-18T23:50:57.707Z,67.70
2018-04-18T23:53:30.504Z,66.80
2018-04-18T23:56:03.285Z,66.30
2018-04-18T23:58:36.835Z,69.40
